KJCT/JCT METAR and TAF weather

Enter ICAO airport designator
Station Type Date Time Source
KJCT METAR 2019/06/16 11:51 UTC NOAA

KJCT 161151Z AUTO 19008KT 10SM OVC020 25/21 A2988 RMK AO2 SLP076 60000 T02500211 10283 20233 53013


Station Type Date Time Source
KJCT Decoded METAR 2019/06/16 11:51 UTC NOAA

KIMBLE COUNTY AIRPORT, TX, United States (KJCT) 30-31N 099-46W 523M
Jun 16, 2019 - 07:51 AM EDT / 2019.06.16 1151 UTC
Wind: from the S (190 degrees) at 9 MPH (8 KT):0
Visibility: 10 mile(s):0
Sky conditions: overcast
Temperature: 77.0 F (25.0 C)
Dew Point: 70.0 F (21.1 C)
Relative Humidity: 78%
Pressure (altimeter): 29.88 in. Hg (1011 hPa)
Pressure tendency: 0.04 inches (1.3 hPa) higher than three hours ago
ob: KJCT 161151Z AUTO 19008KT 10SM OVC020 25/21 A2988 RMK AO2 SLP076 60000 T02500211 10283 20233 53013
cycle: 12

Station Type Date Time Source
KJCT TAF 2019/06/16 12:22 UTC NOAA

TAF KJCT 161120Z 1612/1712 18007KT P6SM BKN020
FM161600 18012G17KT P6SM SCT040
FM170500 13010KT P6SM VCTS BKN020CB
FM170900 13006KT P6SM BKN015

Example: see airport list